Time;durP1;ratioP1;P1;durP2;ratioP2;P2;SDS_P1;SDS_P2;PMS_P1;PMS_P2;Temp;Humidity;BMP_temperature;BMP_pressure;BME280_temperature;BME280_humidity;BME280_pressure;Samples;Min_cycle;Max_cycle;Signal;HPM_P1;HPM_P2
2023/04/29 00:17:34;;;;;;;25.37;16.93;;;5.60;91.50;;;;;;5858819;23;21040;-84
2023/04/29 00:38:02;;;;;;;20.37;16.47;;;5.70;89.50;;;;;;5945953;23;20273;-85
2023/04/29 00:58:16;;;;;;;20.40;15.80;;;6.20;87.40;;;;;;5647149;24;21155;-87
2023/04/29 01:24:05;;;;;;;18.93;14.23;;;6.30;86.60;;;;;;5638747;24;20296;-84
2023/04/29 01:59:08;;;;;;;18.33;14.80;;;6.10;86.10;;;;;;5755082;24;20600;-84
2023/04/29 02:55:10;;;;;;;17.80;13.53;;;6.30;86.30;;;;;;5759292;24;20176;-82
2023/04/29 03:40:50;;;;;;;14.83;11.57;;;6.30;86.50;;;;;;5852410;24;20519;-83
2023/04/29 04:51:29;;;;;;;11.20;8.83;;;7.60;83.50;;;;;;5807778;24;21195;-84
2023/04/29 05:37:18;;;;;;;11.00;8.53;;;9.10;80.90;;;;;;5763448;24;20166;-86
2023/04/29 06:07:59;;;;;;;11.87;7.83;;;10.70;78.90;;;;;;5690644;24;20234;-81
2023/04/29 06:32:45;;;;;;;9.20;7.70;;;11.60;76.00;;;;;;5749134;24;20236;-85
2023/04/29 06:53:17;;;;;;;7.07;6.37;;;12.40;72.40;;;;;;5635186;25;20698;-85
2023/04/29 07:49:26;;;;;;;8.43;4.77;;;14.00;62.80;;;;;;5811687;23;20222;-87
2023/04/29 08:19:46;;;;;;;5.27;3.90;;;15.50;54.10;;;;;;5821227;24;20425;-84
2023/04/29 08:50:10;;;;;;;5.23;4.50;;;15.80;52.60;;;;;;5838334;24;20195;-87
2023/04/29 09:15:39;;;;;;;7.97;4.87;;;16.30;51.70;;;;;;5695917;24;20211;-84
2023/04/29 10:11:17;;;;;;;6.17;4.40;;;16.90;49.40;;;;;;5796225;24;20238;-84
2023/04/29 10:36:47;;;;;;;8.53;4.37;;;16.40;49.30;;;;;;5740021;24;20247;-86
2023/04/29 11:41:58;;;;;;;5.90;4.30;;;17.90;48.70;;;;;;5686310;24;20716;-85
2023/04/29 12:03:13;;;;;;;5.53;4.40;;;18.00;49.10;;;;;;5816691;24;20184;-87
2023/04/29 12:07:18;;;;;;;4.90;4.40;;;18.20;49.30;;;;;;5735742;24;20462;-84
2023/04/29 12:32:52;;;;;;;5.27;4.50;;;18.60;48.60;;;;;;5749550;24;20264;-85
2023/04/29 12:58:22;;;;;;;5.27;4.67;;;18.40;48.00;;;;;;5630283;24;20570;-87
2023/04/29 13:34:08;;;;;;;6.97;5.00;;;18.70;47.00;;;;;;5714742;24;20743;-84
2023/04/29 14:03:55;;;;;;;6.00;4.87;;;17.90;48.10;;;;;;5753406;24;20344;-87
2023/04/29 14:29:48;;;;;;;6.13;5.10;;;19.30;48.10;;;;;;5783706;24;20637;-85
2023/04/29 14:49:50;;;;;;;10.70;4.90;;;18.80;48.70;;;;;;5574530;25;20567;-85
2023/04/29 15:15:26;;;;;;;6.47;4.97;;;18.90;48.10;;;;;;5748936;24;20236;-84
2023/04/29 15:45:56;;;;;;;6.77;4.80;;;18.10;48.20;;;;;;5766284;24;20263;-84
2023/04/29 16:11:18;;;;;;;8.07;5.13;;;18.50;48.90;;;;;;5614411;25;20220;-83
2023/04/29 16:31:39;;;;;;;5.00;4.40;;;17.80;48.00;;;;;;5929608;23;20200;-85
2023/04/29 16:35:59;;;;;;;5.33;4.83;;;17.60;48.00;;;;;;5838659;24;20589;-84
2023/04/29 17:01:41;;;;;;;4.57;4.13;;;16.90;47.90;;;;;;5649670;24;20516;-84
2023/04/29 17:31:58;;;;;;;7.20;5.50;;;16.50;49.40;;;;;;5913153;23;20196;-84
2023/04/29 18:02:37;;;;;;;6.40;5.70;;;16.10;61.70;;;;;;4739759;29;20210;-85
2023/04/29 18:27:56;;;;;;;6.47;5.80;;;15.60;74.70;;;;;;4605005;30;20232;-86
2023/04/29 18:53:08;;;;;;;;;;;;;;;;;;;;;
2023/04/29 19:18:24;;;;;;;12.30;8.00;;;14.60;82.50;;;;;;5186091;23;20869;-83
2023/04/29 19:38:55;;;;;;;12.30;8.37;;;14.30;83.70;;;;;;4620477;30;20249;-82
2023/04/29 20:23:49;;;;;;;14.67;10.90;;;13.00;92.90;;;;;;4657708;29;20708;-83
2023/04/29 20:54:19;;;;;;;16.33;12.27;;;12.30;99.90;;;;;;4588658;30;20720;-83
2023/04/29 21:10:03;;;;;;;18.10;14.70;;;12.40;98.00;;;;;;4584870;30;20719;-84
2023/04/29 21:35:20;;;;;;;18.27;14.87;;;11.80;99.90;;;;;;4676854;29;20513;-83
2023/04/29 21:55:46;;;;;;;18.83;14.47;;;11.60;99.90;;;;;;4656239;29;20203;-83
2023/04/29 23:26:22;;;;;;;17.87;15.33;;;12.20;97.00;;;;;;4482381;30;20300;-86
